トロント/ピアソン の空港の天気 - METARとTAF

トロント・ピアソン国際空港 ( CYYZ / YYZ ) - カナダ オンタリオ州トロント
飛行場実況気象(Metar)
観測時間02/20 10:00 EST (02/20 15:00 UTC)
風向・風速東北東 3m/s
視程10km以上
天気現象
少しの雲 雲底高度 6400m
気温2℃
湿度60%
気圧1028.9hPa
METARCYYZ 201500Z 06006KT 15SM FEW210 02/M05 A3036 RMK CI1 SLP289
過去の天気等 Google飛行場航空写真 Wunderground天気予報

過去48時間のMETAR

飛行場予報(TAF)
発表時間: 2/20 09:39 EST (2/20 14:39 UTC)
予報対象時間: 20日10時 EST ~ 21日13時 EST
風向・風速北東 3m/s
視程10km以上
なし
20日11時 EST ~ 20日13時 EST に徐々に
風向・風速東南東 4m/s
20日17時 EST から
風向・風速東南東 4m/s
視程10km以上
全天の4割程度の雲 雲底高度 6,100m
21日1時 EST から
風向・風速東 4m/s 瞬間風速 9m/s
視程10km以上
全天の8割程度の雲 雲底高度 5,490m
21日5時 EST ~ 21日7時 EST に徐々に
風向・風速東南東 3m/s
TAF CYYZ 201439Z 2015/2118 04006KT P6SM SKC
BECMG 2016/2018 12007KT
FM202200 11007KT P6SM SCT200
FM210600 10008G18KT P6SM BKN180
BECMG 2110/2112 11006KT RMK NXT FCST BY 201800Z